Arka, Russia
Current Conditions -  °F | °C
As of 2:00 PM on Thursday 18 Dec 2014 (Local Time) from UHMM Reporting Station
Scattered Clouds Scattered Clouds  
Wind Chill: -21°   Ceiling: Unl
Heat Index: -9°   Visibility: 6mi
Dew Point: -18°   Wind: 4mph
Humidity: 65%   Direction: 130°SE
Pressure: 29.88"   Gusts: NA
Location:  60.08°N, 142.33°E
Report Text: UHMM 180400Z 13002MPS 9999 SCT200 M23/M28 Q1012 NOSIG RMKQFE744 88920550
Loading
Personal Weather Stations






























Interactive Weather Map New forecast layout! Learn more

10-Day Weather Forecast

Advertisements
Track Severe Weather on mobile